Terminal Aerodrome Forecast
Issued by NWS Green Bay, WI

Home | Current Version | Previous Version | Text Only | Print | Product List | Glossary On
Versions: 1 2 3 4 5 6 7 8 9 10 11 12 13 14 15
000
FTUS43 KGRB 221134
TAFGRB
TAF
KGRB 221134Z 2212/2312 19011KT P6SM OVC035 WS020/21040KT
      TEMPO 2212/2214 -SHRA BKN025
     FM221400 24008KT P6SM OVC030 WS020/20035KT
      TEMPO 2214/2217 -SHRA BKN018
     FM221700 29008KT P6SM -SHRA OVC024
     FM222100 28006KT P6SM -SHRA OVC035
     FM222300 24003KT P6SM BKN050
     FM230200 24003KT P6SM SKC
      TEMPO 2308/2312 1 1/2SM BR=

USA.gov is the U.S. government's official web portal to all federal, state and local government web resources and services.